sensor_id;sensor_type;location;lat;lon;timestamp;pressure;altitude;pressure_sealevel;temperature;humidity
52983;BME280;48698;45.736;13.926;2023-03-29T00:02:18;98358.72;;;0.09;100.00
52983;BME280;48698;45.736;13.926;2023-03-29T00:07:22;98275.97;;;-0.41;100.00
52983;BME280;48698;45.736;13.926;2023-03-29T00:12:27;98304.75;;;-0.11;100.00
52983;BME280;48698;45.736;13.926;2023-03-29T00:17:31;98391.81;;;0.20;100.00
52983;BME280;48698;45.736;13.926;2023-03-29T00:22:36;98361.34;;;0.34;100.00
52983;BME280;48698;45.736;13.926;2023-03-29T00:27:39;98275.13;;;-0.26;100.00
52983;BME280;48698;45.736;13.926;2023-03-29T00:32:43;98215.91;;;-0.68;100.00
52983;BME280;48698;45.736;13.926;2023-03-29T00:37:48;98383.97;;;0.11;100.00
52983;BME280;48698;45.736;13.926;2023-03-29T00:42:52;98334.25;;;-0.42;100.00
52983;BME280;48698;45.736;13.926;2023-03-29T00:48:02;98386.59;;;0.17;100.00
52983;BME280;48698;45.736;13.926;2023-03-29T00:53:15;98293.25;;;-0.79;100.00
52983;BME280;48698;45.736;13.926;2023-03-29T00:58:35;98337.72;;;-0.47;100.00
52983;BME280;48698;45.736;13.926;2023-03-29T01:03:45;98403.94;;;-0.14;100.00
52983;BME280;48698;45.736;13.926;2023-03-29T01:08:56;98325.59;;;-0.21;100.00
52983;BME280;48698;45.736;13.926;2023-03-29T01:14:08;98393.56;;;0.24;100.00
52983;BME280;48698;45.736;13.926;2023-03-29T01:19:17;98301.22;;;-0.25;100.00
52983;BME280;48698;45.736;13.926;2023-03-29T01:29:50;98370.06;;;0.58;100.00
52983;BME280;48698;45.736;13.926;2023-03-29T01:35:04;98370.94;;;0.29;100.00
52983;BME280;48698;45.736;13.926;2023-03-29T01:40:12;98356.13;;;0.59;100.00
52983;BME280;48698;45.736;13.926;2023-03-29T01:45:23;98358.75;;;0.66;100.00
52983;BME280;48698;45.736;13.926;2023-03-29T01:50:37;98318.66;;;0.61;100.00
52983;BME280;48698;45.736;13.926;2023-03-29T01:55:48;98235.09;;;0.20;100.00
52983;BME280;48698;45.736;13.926;2023-03-29T02:00:56;98294.28;;;0.41;100.00
52983;BME280;48698;45.736;13.926;2023-03-29T02:06:00;98360.47;;;0.91;100.00
52983;BME280;48698;45.736;13.926;2023-03-29T02:11:05;98243.81;;;0.12;100.00
52983;BME280;48698;45.736;13.926;2023-03-29T02:16:11;98349.09;;;1.03;100.00
52983;BME280;48698;45.736;13.926;2023-03-29T02:21:20;98349.13;;;0.91;100.00
52983;BME280;48698;45.736;13.926;2023-03-29T02:26:32;98329.97;;;0.74;100.00
52983;BME280;48698;45.736;13.926;2023-03-29T02:31:43;98254.22;;;0.37;100.00
52983;BME280;48698;45.736;13.926;2023-03-29T02:37:00;98126.34;;;-0.63;100.00
52983;BME280;48698;45.736;13.926;2023-03-29T02:42:06;98228.97;;;0.33;100.00
52983;BME280;48698;45.736;13.926;2023-03-29T02:47:22;98366.50;;;1.13;100.00
52983;BME280;48698;45.736;13.926;2023-03-29T02:52:33;98226.41;;;-0.02;100.00
52983;BME280;48698;45.736;13.926;2023-03-29T02:57:38;98336.03;;;0.91;100.00
52983;BME280;48698;45.736;13.926;2023-03-29T03:02:43;98334.16;;;1.34;100.00
52983;BME280;48698;45.736;13.926;2023-03-29T03:07:46;98044.53;;;-0.13;100.00
52983;BME280;48698;45.736;13.926;2023-03-29T03:12:50;98075.03;;;-0.33;100.00
52983;BME280;48698;45.736;13.926;2023-03-29T03:17:54;98263.75;;;0.79;100.00
52983;BME280;48698;45.736;13.926;2023-03-29T03:22:58;98281.16;;;0.82;100.00
52983;BME280;48698;45.736;13.926;2023-03-29T03:28:01;98365.72;;;0.43;100.00
52983;BME280;48698;45.736;13.926;2023-03-29T03:33:04;98146.34;;;-0.39;100.00
52983;BME280;48698;45.736;13.926;2023-03-29T03:38:08;98215.94;;;0.32;100.00
52983;BME280;48698;45.736;13.926;2023-03-29T03:43:13;98222.81;;;0.63;100.00
52983;BME280;48698;45.736;13.926;2023-03-29T03:48:16;98326.47;;;0.96;100.00
52983;BME280;48698;45.736;13.926;2023-03-29T03:53:21;98306.38;;;0.98;100.00
52983;BME280;48698;45.736;13.926;2023-03-29T03:58:25;98123.69;;;0.16;100.00
52983;BME280;48698;45.736;13.926;2023-03-29T04:03:29;98298.25;;;1.65;100.00
52983;BME280;48698;45.736;13.926;2023-03-29T04:08:33;98303.63;;;1.37;100.00
52983;BME280;48698;45.736;13.926;2023-03-29T04:13:37;98276.63;;;1.29;100.00
52983;BME280;48698;45.736;13.926;2023-03-29T04:18:40;98117.41;;;0.66;100.00
52983;BME280;48698;45.736;13.926;2023-03-29T04:23:54;98265.09;;;1.64;100.00
52983;BME280;48698;45.736;13.926;2023-03-29T04:28:58;98221.69;;;1.29;100.00
52983;BME280;48698;45.736;13.926;2023-03-29T04:34:02;98147.09;;;0.49;100.00
52983;BME280;48698;45.736;13.926;2023-03-29T04:39:05;98099.25;;;0.29;100.00
52983;BME280;48698;45.736;13.926;2023-03-29T04:44:10;98213.03;;;1.15;100.00
52983;BME280;48698;45.736;13.926;2023-03-29T04:49:14;98235.81;;;0.80;100.00
52983;BME280;48698;45.736;13.926;2023-03-29T04:54:19;98074.97;;;-0.06;100.00
52983;BME280;48698;45.736;13.926;2023-03-29T04:59:23;98266.31;;;0.96;100.00
52983;BME280;48698;45.736;13.926;2023-03-29T05:04:26;98278.28;;;1.47;100.00
52983;BME280;48698;45.736;13.926;2023-03-29T05:09:30;98033.94;;;0.29;100.00
52983;BME280;48698;45.736;13.926;2023-03-29T05:14:36;98263.25;;;1.78;100.00
52983;BME280;48698;45.736;13.926;2023-03-29T05:19:40;98203.34;;;1.32;100.00
52983;BME280;48698;45.736;13.926;2023-03-29T05:24:46;98182.41;;;1.31;100.00
52983;BME280;48698;45.736;13.926;2023-03-29T05:29:49;98286.56;;;2.13;100.00
52983;BME280;48698;45.736;13.926;2023-03-29T05:35:04;98209.97;;;1.83;100.00
52983;BME280;48698;45.736;13.926;2023-03-29T05:40:08;98140.59;;;1.23;100.00
52983;BME280;48698;45.736;13.926;2023-03-29T05:45:12;98038.84;;;0.84;100.00
52983;BME280;48698;45.736;13.926;2023-03-29T05:50:15;98272.53;;;2.24;100.00
52983;BME280;48698;45.736;13.926;2023-03-29T05:55:19;98209.00;;;1.93;100.00
52983;BME280;48698;45.736;13.926;2023-03-29T06:00:25;97996.91;;;0.99;100.00
52983;BME280;48698;45.736;13.926;2023-03-29T06:05:30;98247.06;;;2.38;100.00
52983;BME280;48698;45.736;13.926;2023-03-29T06:10:35;98212.28;;;2.21;100.00
52983;BME280;48698;45.736;13.926;2023-03-29T06:15:39;98275.47;;;2.81;100.00
52983;BME280;48698;45.736;13.926;2023-03-29T06:20:46;98139.03;;;2.06;100.00
52983;BME280;48698;45.736;13.926;2023-03-29T06:25:50;97993.63;;;1.70;100.00
52983;BME280;48698;45.736;13.926;2023-03-29T06:30:54;98116.31;;;2.83;100.00
52983;BME280;48698;45.736;13.926;2023-03-29T06:35:58;98060.41;;;2.79;100.00
52983;BME280;48698;45.736;13.926;2023-03-29T06:41:04;97903.44;;;1.94;100.00
52983;BME280;48698;45.736;13.926;2023-03-29T06:46:09;98239.22;;;4.32;100.00
52983;BME280;48698;45.736;13.926;2023-03-29T06:51:14;98222.97;;;5.85;100.00
52983;BME280;48698;45.736;13.926;2023-03-29T06:56:18;98221.72;;;6.37;100.00
52983;BME280;48698;45.736;13.926;2023-03-29T07:01:21;98113.69;;;6.00;100.00
52983;BME280;48698;45.736;13.926;2023-03-29T07:06:26;98242.31;;;7.52;100.00
52983;BME280;48698;45.736;13.926;2023-03-29T07:11:40;97954.38;;;6.07;100.00
52983;BME280;48698;45.736;13.926;2023-03-29T07:16:44;98214.34;;;8.02;100.00
52983;BME280;48698;45.736;13.926;2023-03-29T07:21:50;98148.38;;;7.96;100.00
52983;BME280;48698;45.736;13.926;2023-03-29T07:26:53;98182.19;;;8.14;100.00
52983;BME280;48698;45.736;13.926;2023-03-29T07:32:06;98040.03;;;7.42;100.00
52983;BME280;48698;45.736;13.926;2023-03-29T07:37:09;98265.72;;;8.75;100.00
52983;BME280;48698;45.736;13.926;2023-03-29T07:42:13;98084.34;;;7.60;100.00
52983;BME280;48698;45.736;13.926;2023-03-29T07:47:17;98280.75;;;9.01;100.00
52983;BME280;48698;45.736;13.926;2023-03-29T07:52:21;98268.94;;;8.85;100.00
52983;BME280;48698;45.736;13.926;2023-03-29T07:57:25;98232.47;;;8.66;100.00
52983;BME280;48698;45.736;13.926;2023-03-29T08:02:29;98260.34;;;8.78;100.00
52983;BME280;48698;45.736;13.926;2023-03-29T08:07:33;98237.91;;;9.13;100.00
52983;BME280;48698;45.736;13.926;2023-03-29T08:12:37;98205.84;;;8.96;100.00
52983;BME280;48698;45.736;13.926;2023-03-29T08:17:40;98219.66;;;9.28;100.00
52983;BME280;48698;45.736;13.926;2023-03-29T08:22:44;98064.63;;;8.47;100.00
52983;BME280;48698;45.736;13.926;2023-03-29T08:27:48;98223.06;;;9.55;100.00
52983;BME280;48698;45.736;13.926;2023-03-29T08:32:51;98207.88;;;10.27;100.00
52983;BME280;48698;45.736;13.926;2023-03-29T08:37:56;98174.41;;;10.23;100.00
52983;BME280;48698;45.736;13.926;2023-03-29T08:44:02;98237.97;;;11.30;100.00
52983;BME280;48698;45.736;13.926;2023-03-29T08:48:46;98164.50;;;10.88;100.00
52983;BME280;48698;45.736;13.926;2023-03-29T08:54:32;98239.81;;;11.28;100.00
52983;BME280;48698;45.736;13.926;2023-03-29T08:59:36;98232.44;;;12.11;100.00
52983;BME280;48698;45.736;13.926;2023-03-29T09:04:41;98137.72;;;11.69;100.00
52983;BME280;48698;45.736;13.926;2023-03-29T09:09:59;98215.84;;;12.59;98.14
52983;BME280;48698;45.736;13.926;2023-03-29T09:15:13;98228.13;;;12.44;94.52
52983;BME280;48698;45.736;13.926;2023-03-29T09:20:26;97957.53;;;10.82;93.02
52983;BME280;48698;45.736;13.926;2023-03-29T09:26:04;98221.88;;;12.96;92.58
52983;BME280;48698;45.736;13.926;2023-03-29T09:31:20;98215.72;;;13.13;86.53
52983;BME280;48698;45.736;13.926;2023-03-29T09:36:48;98196.03;;;12.99;88.46
52983;BME280;48698;45.736;13.926;2023-03-29T09:42:00;98164.22;;;12.61;85.15
52983;BME280;48698;45.736;13.926;2023-03-29T09:47:24;98157.84;;;13.64;80.55
52983;BME280;48698;45.736;13.926;2023-03-29T09:52:30;98155.50;;;13.42;82.29
52983;BME280;48698;45.736;13.926;2023-03-29T09:57:33;98136.84;;;12.75;78.52
52983;BME280;48698;45.736;13.926;2023-03-29T10:02:37;98100.47;;;13.24;79.47
52983;BME280;48698;45.736;13.926;2023-03-29T10:07:45;98208.91;;;13.89;79.79
52983;BME280;48698;45.736;13.926;2023-03-29T10:12:51;98215.84;;;14.40;74.95
52983;BME280;48698;45.736;13.926;2023-03-29T10:18:05;98221.69;;;14.31;77.14
52983;BME280;48698;45.736;13.926;2023-03-29T10:23:17;98221.78;;;13.50;75.93
52983;BME280;48698;45.736;13.926;2023-03-29T10:28:20;98185.94;;;13.38;76.47
52983;BME280;48698;45.736;13.926;2023-03-29T10:33:29;98202.97;;;13.68;76.21
52983;BME280;48698;45.736;13.926;2023-03-29T10:38:34;98210.53;;;13.60;71.05
52983;BME280;48698;45.736;13.926;2023-03-29T10:43:42;97984.06;;;12.74;70.25
52983;BME280;48698;45.736;13.926;2023-03-29T10:48:49;98204.72;;;14.16;68.14
52983;BME280;48698;45.736;13.926;2023-03-29T10:53:53;98199.91;;;14.84;71.92
52983;BME280;48698;45.736;13.926;2023-03-29T10:59:13;98194.50;;;14.70;68.50
52983;BME280;48698;45.736;13.926;2023-03-29T11:09:48;98201.78;;;14.52;68.87
52983;BME280;48698;45.736;13.926;2023-03-29T11:15:02;98183.69;;;14.26;70.17
52983;BME280;48698;45.736;13.926;2023-03-29T11:31:11;97872.56;;;12.51;75.59
52983;BME280;48698;45.736;13.926;2023-03-29T11:36:41;98184.66;;;13.93;77.23
52983;BME280;48698;45.736;13.926;2023-03-29T11:41:54;98108.94;;;13.79;77.86
52983;BME280;48698;45.736;13.926;2023-03-29T11:47:03;98014.84;;;13.13;76.24
52983;BME280;48698;45.736;13.926;2023-03-29T11:52:19;98150.16;;;14.52;76.19
52983;BME280;48698;45.736;13.926;2023-03-29T11:57:32;98155.06;;;14.73;80.68
52983;BME280;48698;45.736;13.926;2023-03-29T12:07:52;97906.06;;;13.49;85.11
52983;BME280;48698;45.736;13.926;2023-03-29T12:13:02;98038.00;;;13.59;81.14
52983;BME280;48698;45.736;13.926;2023-03-29T12:18:19;98144.97;;;14.48;90.37
52983;BME280;48698;45.736;13.926;2023-03-29T12:23:28;98061.34;;;13.24;92.76
52983;BME280;48698;45.736;13.926;2023-03-29T12:39:36;98142.09;;;14.22;100.00
52983;BME280;48698;45.736;13.926;2023-03-29T12:44:42;98131.69;;;14.02;100.00
52983;BME280;48698;45.736;13.926;2023-03-29T12:49:52;98083.19;;;13.31;100.00
52983;BME280;48698;45.736;13.926;2023-03-29T12:54:59;98132.34;;;14.21;96.34
52983;BME280;48698;45.736;13.926;2023-03-29T13:00:21;98096.97;;;14.47;87.38
52983;BME280;48698;45.736;13.926;2023-03-29T13:05:31;98116.41;;;14.04;77.56
52983;BME280;48698;45.736;13.926;2023-03-29T13:10:39;98146.13;;;14.74;77.11
52983;BME280;48698;45.736;13.926;2023-03-29T13:15:44;98134.00;;;14.53;70.37
52983;BME280;48698;45.736;13.926;2023-03-29T13:26:25;98137.38;;;14.57;67.06
52983;BME280;48698;45.736;13.926;2023-03-29T13:37:21;98143.72;;;13.93;73.61
52983;BME280;48698;45.736;13.926;2023-03-29T13:47:40;98140.97;;;14.10;69.21
52983;BME280;48698;45.736;13.926;2023-03-29T13:53:22;98154.91;;;13.99;70.22
52983;BME280;48698;45.736;13.926;2023-03-29T13:58:48;98094.38;;;13.53;75.86
52983;BME280;48698;45.736;13.926;2023-03-29T14:04:01;98153.78;;;13.72;81.19
52983;BME280;48698;45.736;13.926;2023-03-29T14:09:07;98115.25;;;13.78;79.60
52983;BME280;48698;45.736;13.926;2023-03-29T14:14:11;98152.69;;;13.76;76.59
52983;BME280;48698;45.736;13.926;2023-03-29T14:19:40;98108.59;;;13.69;77.51
52983;BME280;48698;45.736;13.926;2023-03-29T14:24:52;98062.75;;;12.81;74.52
52983;BME280;48698;45.736;13.926;2023-03-29T14:29:57;97999.75;;;12.30;70.62
52983;BME280;48698;45.736;13.926;2023-03-29T14:35:00;98044.53;;;12.89;69.82
52983;BME280;48698;45.736;13.926;2023-03-29T14:40:04;98165.16;;;13.12;71.31
52983;BME280;48698;45.736;13.926;2023-03-29T14:45:15;98090.75;;;13.23;72.74
52983;BME280;48698;45.736;13.926;2023-03-29T14:50:26;98098.97;;;12.85;74.63
52983;BME280;48698;45.736;13.926;2023-03-29T14:55:31;98155.16;;;12.98;73.78
52983;BME280;48698;45.736;13.926;2023-03-29T15:00:39;98134.69;;;13.16;72.56
52983;BME280;48698;45.736;13.926;2023-03-29T15:05:51;98163.41;;;12.93;71.58
52983;BME280;48698;45.736;13.926;2023-03-29T15:10:57;98142.13;;;12.59;72.64
52983;BME280;48698;45.736;13.926;2023-03-29T15:16:01;98052.78;;;12.69;70.29
52983;BME280;48698;45.736;13.926;2023-03-29T15:21:11;98143.97;;;12.57;70.62
52983;BME280;48698;45.736;13.926;2023-03-29T15:26:22;98128.75;;;12.76;69.78
52983;BME280;48698;45.736;13.926;2023-03-29T15:31:34;98110.91;;;12.78;65.80
52983;BME280;48698;45.736;13.926;2023-03-29T15:36:43;98124.34;;;12.42;66.26
52983;BME280;48698;45.736;13.926;2023-03-29T15:41:53;98122.38;;;12.46;66.35
52983;BME280;48698;45.736;13.926;2023-03-29T15:46:59;97827.22;;;11.03;67.14
52983;BME280;48698;45.736;13.926;2023-03-29T15:52:03;98104.34;;;12.34;67.49
52983;BME280;48698;45.736;13.926;2023-03-29T15:57:21;98105.59;;;12.61;67.74
52983;BME280;48698;45.736;13.926;2023-03-29T16:02:35;97984.53;;;11.64;70.75
52983;BME280;48698;45.736;13.926;2023-03-29T16:07:49;98042.66;;;11.73;75.10
52983;BME280;48698;45.736;13.926;2023-03-29T16:12:57;98132.94;;;11.95;77.78
52983;BME280;48698;45.736;13.926;2023-03-29T16:18:01;98161.09;;;11.81;79.77
52983;BME280;48698;45.736;13.926;2023-03-29T16:23:06;98160.69;;;12.08;83.80
52983;BME280;48698;45.736;13.926;2023-03-29T16:28:21;98002.34;;;11.80;85.76
52983;BME280;48698;45.736;13.926;2023-03-29T16:33:25;98051.44;;;11.56;87.73
52983;BME280;48698;45.736;13.926;2023-03-29T16:38:30;98155.78;;;11.81;95.71
52983;BME280;48698;45.736;13.926;2023-03-29T16:43:38;98116.63;;;11.09;100.00
52983;BME280;48698;45.736;13.926;2023-03-29T16:48:41;98139.81;;;11.05;100.00
52983;BME280;48698;45.736;13.926;2023-03-29T16:53:46;98086.72;;;10.65;100.00
52983;BME280;48698;45.736;13.926;2023-03-29T16:58:53;98064.03;;;10.58;100.00
52983;BME280;48698;45.736;13.926;2023-03-29T17:03:57;98196.47;;;11.26;100.00
52983;BME280;48698;45.736;13.926;2023-03-29T17:09:00;98053.63;;;10.33;100.00
52983;BME280;48698;45.736;13.926;2023-03-29T17:14:04;97971.38;;;9.29;100.00
52983;BME280;48698;45.736;13.926;2023-03-29T17:19:07;98131.56;;;9.88;100.00
52983;BME280;48698;45.736;13.926;2023-03-29T17:24:11;97981.22;;;8.82;100.00
52983;BME280;48698;45.736;13.926;2023-03-29T17:29:14;98107.88;;;9.62;100.00
52983;BME280;48698;45.736;13.926;2023-03-29T17:34:18;98103.03;;;9.28;100.00
52983;BME280;48698;45.736;13.926;2023-03-29T17:39:26;98043.56;;;8.91;100.00
52983;BME280;48698;45.736;13.926;2023-03-29T17:44:30;98197.13;;;8.92;100.00
52983;BME280;48698;45.736;13.926;2023-03-29T17:49:49;98165.97;;;7.98;100.00
52983;BME280;48698;45.736;13.926;2023-03-29T17:54:57;98144.28;;;7.32;100.00
52983;BME280;48698;45.736;13.926;2023-03-29T18:00:12;98156.81;;;7.25;100.00
52983;BME280;48698;45.736;13.926;2023-03-29T18:05:25;98203.41;;;7.26;100.00
52983;BME280;48698;45.736;13.926;2023-03-29T18:10:29;98093.75;;;6.84;100.00
52983;BME280;48698;45.736;13.926;2023-03-29T18:15:32;98209.75;;;6.90;100.00
52983;BME280;48698;45.736;13.926;2023-03-29T18:20:36;98081.75;;;6.43;100.00
52983;BME280;48698;45.736;13.926;2023-03-29T18:25:39;98145.72;;;6.51;100.00
52983;BME280;48698;45.736;13.926;2023-03-29T18:30:44;98167.16;;;6.71;100.00
52983;BME280;48698;45.736;13.926;2023-03-29T18:35:49;98130.59;;;6.25;100.00
52983;BME280;48698;45.736;13.926;2023-03-29T18:40:55;98199.78;;;6.68;100.00
52983;BME280;48698;45.736;13.926;2023-03-29T18:45:59;98242.44;;;6.86;100.00
52983;BME280;48698;45.736;13.926;2023-03-29T18:51:15;98265.28;;;6.87;100.00
52983;BME280;48698;45.736;13.926;2023-03-29T18:56:19;98288.81;;;5.88;100.00
52983;BME280;48698;45.736;13.926;2023-03-29T19:01:23;98178.63;;;5.65;100.00
52983;BME280;48698;45.736;13.926;2023-03-29T19:06:27;98217.94;;;5.36;100.00
52983;BME280;48698;45.736;13.926;2023-03-29T19:11:30;98151.44;;;4.39;100.00
52983;BME280;48698;45.736;13.926;2023-03-29T19:16:35;98176.63;;;4.97;100.00
52983;BME280;48698;45.736;13.926;2023-03-29T19:21:38;98295.47;;;5.64;100.00
52983;BME280;48698;45.736;13.926;2023-03-29T19:26:43;98147.88;;;4.43;100.00
52983;BME280;48698;45.736;13.926;2023-03-29T19:31:54;98127.50;;;4.07;100.00
52983;BME280;48698;45.736;13.926;2023-03-29T19:36:59;98083.22;;;4.33;100.00
52983;BME280;48698;45.736;13.926;2023-03-29T19:42:03;98256.56;;;5.34;100.00
52983;BME280;48698;45.736;13.926;2023-03-29T19:47:06;98035.03;;;3.87;100.00
52983;BME280;48698;45.736;13.926;2023-03-29T19:52:10;98004.00;;;3.59;100.00
52983;BME280;48698;45.736;13.926;2023-03-29T19:57:13;98005.97;;;3.47;100.00
52983;BME280;48698;45.736;13.926;2023-03-29T20:02:18;98298.38;;;5.08;100.00
52983;BME280;48698;45.736;13.926;2023-03-29T20:07:22;98313.28;;;4.60;100.00
52983;BME280;48698;45.736;13.926;2023-03-29T20:12:25;97987.91;;;2.11;100.00
52983;BME280;48698;45.736;13.926;2023-03-29T20:17:29;98175.38;;;3.72;100.00
52983;BME280;48698;45.736;13.926;2023-03-29T20:22:32;98097.31;;;3.25;100.00
52983;BME280;48698;45.736;13.926;2023-03-29T20:27:36;98052.66;;;2.72;100.00
52983;BME280;48698;45.736;13.926;2023-03-29T20:32:39;98183.41;;;3.63;100.00
52983;BME280;48698;45.736;13.926;2023-03-29T20:37:44;98304.56;;;4.56;100.00
52983;BME280;48698;45.736;13.926;2023-03-29T20:42:47;97960.53;;;2.35;100.00
52983;BME280;48698;45.736;13.926;2023-03-29T20:47:51;98189.78;;;3.45;100.00
52983;BME280;48698;45.736;13.926;2023-03-29T20:52:59;98304.91;;;4.37;100.00
52983;BME280;48698;45.736;13.926;2023-03-29T20:58:05;98268.88;;;3.87;100.00
52983;BME280;48698;45.736;13.926;2023-03-29T21:03:10;98110.34;;;2.72;100.00
52983;BME280;48698;45.736;13.926;2023-03-29T21:08:14;98356.25;;;4.04;100.00
52983;BME280;48698;45.736;13.926;2023-03-29T21:13:19;98350.63;;;4.27;100.00
52983;BME280;48698;45.736;13.926;2023-03-29T21:18:23;98277.97;;;4.21;100.00
52983;BME280;48698;45.736;13.926;2023-03-29T21:23:31;98219.22;;;3.70;100.00
52983;BME280;48698;45.736;13.926;2023-03-29T21:28:35;98344.69;;;4.69;100.00
52983;BME280;48698;45.736;13.926;2023-03-29T21:33:39;98199.66;;;4.38;100.00
52983;BME280;48698;45.736;13.926;2023-03-29T21:38:43;98200.59;;;4.37;100.00
52983;BME280;48698;45.736;13.926;2023-03-29T21:43:47;98037.28;;;3.05;100.00
52983;BME280;48698;45.736;13.926;2023-03-29T21:49:00;98009.19;;;3.12;100.00
52983;BME280;48698;45.736;13.926;2023-03-29T21:54:04;98253.78;;;4.99;100.00
52983;BME280;48698;45.736;13.926;2023-03-29T21:59:08;98322.97;;;5.51;100.00
52983;BME280;48698;45.736;13.926;2023-03-29T22:04:11;98116.66;;;4.25;100.00
52983;BME280;48698;45.736;13.926;2023-03-29T22:09:32;98332.97;;;5.77;100.00
52983;BME280;48698;45.736;13.926;2023-03-29T22:14:37;98003.25;;;3.99;100.00
52983;BME280;48698;45.736;13.926;2023-03-29T22:19:40;98021.38;;;4.12;100.00
52983;BME280;48698;45.736;13.926;2023-03-29T22:24:44;98275.81;;;5.39;100.00
52983;BME280;48698;45.736;13.926;2023-03-29T22:29:48;98319.44;;;5.95;100.00
52983;BME280;48698;45.736;13.926;2023-03-29T22:34:51;98279.72;;;5.61;100.00
52983;BME280;48698;45.736;13.926;2023-03-29T22:39:55;98230.25;;;5.34;100.00
52983;BME280;48698;45.736;13.926;2023-03-29T22:44:58;98224.53;;;4.69;100.00
52983;BME280;48698;45.736;13.926;2023-03-29T22:50:02;98289.38;;;5.19;100.00
52983;BME280;48698;45.736;13.926;2023-03-29T22:55:06;98154.84;;;4.46;100.00
52983;BME280;48698;45.736;13.926;2023-03-29T23:00:10;98282.25;;;5.25;100.00
52983;BME280;48698;45.736;13.926;2023-03-29T23:05:23;98314.25;;;5.49;100.00
52983;BME280;48698;45.736;13.926;2023-03-29T23:10:27;98118.81;;;4.49;100.00
52983;BME280;48698;45.736;13.926;2023-03-29T23:15:34;98299.91;;;5.19;100.00
52983;BME280;48698;45.736;13.926;2023-03-29T23:20:38;98147.94;;;4.40;100.00
52983;BME280;48698;45.736;13.926;2023-03-29T23:25:44;98326.56;;;5.47;100.00
52983;BME280;48698;45.736;13.926;2023-03-29T23:31:00;98338.34;;;5.28;100.00
52983;BME280;48698;45.736;13.926;2023-03-29T23:36:07;98295.56;;;5.17;100.00
52983;BME280;48698;45.736;13.926;2023-03-29T23:41:14;98346.69;;;5.04;100.00
52983;BME280;48698;45.736;13.926;2023-03-29T23:46:18;98220.97;;;4.74;100.00
52983;BME280;48698;45.736;13.926;2023-03-29T23:51:23;97987.41;;;3.57;100.00
52983;BME280;48698;45.736;13.926;2023-03-29T23:56:30;98133.34;;;4.24;100.00
